Time;durP1;ratioP1;P1;durP2;ratioP2;P2;SDS_P1;SDS_P2;PMS_P1;PMS_P2;Temp;Humidity;BMP_temperature;BMP_pressure;BME280_temperature;BME280_humidity;BME280_pressure;Samples;Min_cycle;Max_cycle;Signal;HPM_P1;HPM_P2
2023/08/28 00:03:25;;;;;;;4.40;2.42;;;;;;;14.91;73.52;100639.75;10392003;28;20041;-81
2023/08/28 00:08:27;;;;;;;3.28;2.10;;;;;;;14.72;73.93;100633.56;10446317;28;20459;-80
2023/08/28 00:13:31;;;;;;;5.20;2.45;;;;;;;14.60;74.36;100625.00;10432086;28;20053;-84
2023/08/28 00:18:33;;;;;;;3.47;2.22;;;;;;;14.54;74.03;100624.28;10474949;28;20041;-80
2023/08/28 00:23:35;;;;;;;3.50;2.22;;;;;;;14.70;72.75;100633.88;10463546;28;20052;-83
2023/08/28 00:28:38;;;;;;;3.97;2.30;;;;;;;14.94;71.96;100635.59;10483295;28;20044;-82
2023/08/28 00:33:40;;;;;;;3.17;1.98;;;;;;;15.08;70.82;100639.94;10439603;28;20080;-82
2023/08/28 00:38:45;;;;;;;3.72;2.53;;;;;;;15.31;69.75;100640.78;10406412;28;20056;-83
2023/08/28 00:43:47;;;;;;;4.07;3.20;;;;;;;14.71;71.37;100635.50;10425491;28;20046;-81
2023/08/28 00:48:50;;;;;;;3.50;1.88;;;;;;;14.31;73.38;100633.56;10421502;28;20502;-84
2023/08/28 00:53:53;;;;;;;3.90;2.75;;;;;;;14.16;73.82;100624.44;10412939;28;20041;-82
2023/08/28 00:58:55;;;;;;;4.38;2.83;;;;;;;14.10;73.97;100622.91;10411341;28;20065;-81
2023/08/28 01:03:58;;;;;;;3.28;2.50;;;;;;;14.36;73.30;100625.16;10389046;28;20054;-80
2023/08/28 01:09:14;;;;;;;4.30;2.92;;;;;;;14.50;72.40;100634.31;10432608;28;20033;-82
2023/08/28 01:14:28;;;;;;;3.05;2.08;;;;;;;14.30;72.83;100624.47;10442813;28;20038;-83
2023/08/28 01:19:37;;;;;;;3.30;2.45;;;;;;;14.26;73.93;100637.25;10469236;28;20041;-81
2023/08/28 01:24:45;;;;;;;3.42;2.30;;;;;;;14.62;71.75;100629.09;10438234;28;20049;-80
2023/08/28 01:30:11;;;;;;;4.35;3.05;;;;;;;14.56;71.64;100635.00;10473581;28;20048;-83
2023/08/28 01:35:20;;;;;;;2.85;2.22;;;;;;;14.28;72.67;100636.94;10390023;28;20042;-83
2023/08/28 01:40:29;;;;;;;5.57;2.95;;;;;;;14.43;72.20;100634.72;10436039;28;20061;-81
2023/08/28 01:45:31;;;;;;;3.85;2.38;;;;;;;14.19;72.55;100637.63;10434204;28;20053;-81
2023/08/28 01:50:34;;;;;;;6.32;2.78;;;;;;;14.39;72.32;100630.06;10431393;28;20096;-83
2023/08/28 01:55:45;;;;;;;6.78;2.70;;;;;;;14.53;71.17;100644.72;10410857;28;20037;-78
2023/08/28 02:00:48;;;;;;;3.38;2.35;;;;;;;14.64;71.59;100637.06;10464292;28;20037;-84
2023/08/28 02:05:50;;;;;;;3.67;2.78;;;;;;;14.72;70.77;100637.13;10426995;28;20073;-83
2023/08/28 02:10:54;;;;;;;3.72;2.88;;;;;;;14.70;70.70;100636.63;10449621;28;20045;-82
2023/08/28 02:16:00;;;;;;;5.15;2.70;;;;;;;14.26;71.71;100628.16;10419581;28;20041;-79
2023/08/28 02:21:03;;;;;;;3.08;1.88;;;;;;;14.40;71.15;100615.13;10448207;28;20045;-82
2023/08/28 02:26:05;;;;;;;4.50;2.53;;;;;;;14.23;72.09;100621.31;10420758;28;20045;-82
2023/08/28 02:31:08;;;;;;;4.50;2.25;;;;;;;14.17;72.70;100620.56;10447802;28;20037;-81
2023/08/28 02:36:10;;;;;;;3.97;2.15;;;;;;;14.25;72.02;100618.22;10417470;28;20046;-83
2023/08/28 02:41:13;;;;;;;3.20;2.30;;;;;;;14.71;70.63;100601.53;10452865;28;20041;-82
2023/08/28 02:46:15;;;;;;;3.95;2.50;;;;;;;14.67;70.52;100593.06;10400885;28;20041;-83
2023/08/28 02:51:17;;;;;;;3.38;2.40;;;;;;;14.56;70.91;100590.81;10431737;28;20060;-82
2023/08/28 02:56:20;;;;;;;8.07;2.53;;;;;;;14.53;71.59;100585.91;10407605;28;20037;-82
2023/08/28 03:01:24;;;;;;;3.33;1.75;;;;;;;14.56;70.82;100580.59;10397741;28;20463;-80
2023/08/28 03:06:27;;;;;;;4.25;2.80;;;;;;;14.31;70.76;100579.16;10432976;28;20045;-81
2023/08/28 03:11:29;;;;;;;4.80;2.13;;;;;;;14.34;70.55;100583.25;10385302;28;20046;-81
2023/08/28 03:16:31;;;;;;;5.40;2.40;;;;;;;14.36;70.39;100569.94;10407658;28;20041;-82
2023/08/28 03:21:34;;;;;;;2.83;2.17;;;;;;;14.64;69.25;100560.53;10416503;28;20041;-82
2023/08/28 03:26:37;;;;;;;4.03;2.78;;;;;;;14.25;70.35;100554.75;10427800;28;20045;-82
2023/08/28 03:31:41;;;;;;;7.28;2.50;;;;;;;14.30;69.75;100549.94;10430545;28;20525;-83
2023/08/28 03:36:44;;;;;;;2.95;1.73;;;;;;;14.90;67.93;100546.94;10431691;28;20076;-83
2023/08/28 03:41:46;;;;;;;3.35;2.00;;;;;;;14.78;67.58;100555.81;10403849;28;20048;-83
2023/08/28 03:46:48;;;;;;;3.20;2.08;;;;;;;14.71;67.97;100557.34;10385607;28;20145;-84
2023/08/28 03:51:51;;;;;;;3.90;2.35;;;;;;;14.92;67.67;100549.41;10477316;28;20505;-83
2023/08/28 03:56:53;;;;;;;5.07;2.55;;;;;;;14.91;67.15;100565.16;10393578;28;20044;-82
2023/08/28 04:01:55;;;;;;;5.05;2.78;;;;;;;15.02;67.33;100565.75;10422680;28;20425;-83
2023/08/28 04:06:58;;;;;;;3.10;2.10;;;;;;;15.41;66.16;100572.53;10416875;28;20053;-81
2023/08/28 04:12:01;;;;;;;5.22;2.53;;;;;;;15.36;66.98;100579.03;10443051;28;20049;-83
2023/08/28 04:17:06;;;;;;;8.43;2.75;;;;;;;16.40;63.87;100582.34;10407072;28;20037;-81
2023/08/28 04:22:11;;;;;;;2.80;2.13;;;;;;;17.45;61.26;100582.13;10414365;28;20111;-80
2023/08/28 04:27:20;;;;;;;3.50;2.10;;;;;;;17.75;59.59;100588.63;10383537;28;20064;-83
2023/08/28 04:32:22;;;;;;;6.35;2.63;;;;;;;18.35;58.16;100591.16;10401938;28;20502;-82
2023/08/28 04:37:24;;;;;;;4.40;2.85;;;;;;;17.70;59.53;100591.56;10447458;28;20611;-80
2023/08/28 04:42:27;;;;;;;3.55;2.40;;;;;;;17.93;58.82;100584.66;10374531;28;20048;-80
2023/08/28 04:47:29;;;;;;;4.05;2.53;;;;;;;17.91;58.52;100583.34;10421343;28;20434;-81
2023/08/28 04:52:31;;;;;;;5.20;2.78;;;;;;;18.35;57.02;100568.13;10413229;28;20060;-79
2023/08/28 04:57:34;;;;;;;5.45;2.97;;;;;;;17.26;59.78;100570.56;10403728;28;20038;-81
2023/08/28 05:02:39;;;;;;;3.67;2.17;;;;;;;17.63;58.90;100578.16;10407540;28;20542;-79
2023/08/28 05:07:42;;;;;;;4.07;2.10;;;;;;;17.35;59.65;100591.56;10404157;28;20045;-81
2023/08/28 05:12:45;;;;;;;3.78;2.28;;;;;;;17.77;59.73;100597.44;10409444;28;20044;-83
2023/08/28 05:17:48;;;;;;;3.15;2.28;;;;;;;18.68;57.30;100616.34;10411757;28;20072;-82
2023/08/28 05:22:50;;;;;;;2.33;2.13;;;;;;;20.03;54.05;100617.81;10373630;28;20392;-80
2023/08/28 05:27:52;;;;;;;2.60;2.25;;;;;;;20.09;52.94;100616.44;10406274;28;20042;-80
2023/08/28 05:32:55;;;;;;;4.13;2.38;;;;;;;20.59;51.75;100606.97;10420968;28;20048;-80
2023/08/28 05:37:58;;;;;;;4.97;3.10;;;;;;;21.93;48.92;100597.38;10396084;28;20056;-81
2023/08/28 05:43:02;;;;;;;4.72;2.63;;;;;;;21.36;49.33;100577.06;10406883;28;21662;-80
2023/08/28 05:48:11;;;;;;;6.70;2.95;;;;;;;20.87;51.16;100561.63;10445560;28;20041;-82
2023/08/28 05:53:15;;;;;;;3.90;2.67;;;;;;;19.87;52.24;100539.69;10409714;28;20521;-81
2023/08/28 05:58:18;;;;;;;8.05;2.97;;;;;;;19.45;53.88;100539.00;10427730;28;20040;-80
2023/08/28 06:03:22;;;;;;;4.80;2.92;;;;;;;19.57;54.13;100544.63;10408601;28;20062;-80
2023/08/28 06:08:27;;;;;;;4.80;2.70;;;;;;;20.47;51.61;100540.06;10403375;28;20037;-82
2023/08/28 06:13:30;;;;;;;6.13;2.90;;;;;;;19.61;53.21;100530.00;10406158;28;20037;-80
2023/08/28 06:18:33;;;;;;;5.32;3.40;;;;;;;19.76;53.22;100535.72;10436629;28;20037;-81
2023/08/28 06:23:35;;;;;;;7.80;3.35;;;;;;;19.41;53.87;100540.00;10402574;28;20048;-82
2023/08/28 06:28:38;;;;;;;6.38;2.88;;;;;;;20.85;51.00;100539.66;10424420;28;20037;-82
2023/08/28 06:33:40;;;;;;;6.68;2.95;;;;;;;20.15;52.01;100564.09;10424592;28;20510;-82
2023/08/28 06:38:43;;;;;;;8.05;3.03;;;;;;;21.45;48.58;100556.56;10401064;28;20038;-82
2023/08/28 06:43:47;;;;;;;5.25;2.83;;;;;;;21.82;47.98;100573.91;10385204;28;20171;-80
2023/08/28 06:48:52;;;;;;;5.50;3.20;;;;;;;23.01;45.64;100560.47;10402325;28;20034;-80
2023/08/28 06:53:57;;;;;;;4.90;2.35;;;;;;;22.76;45.98;100537.50;10447793;28;20048;-80
2023/08/28 06:58:59;;;;;;;6.00;3.17;;;;;;;22.04;47.98;100541.75;10385338;28;20042;-82
2023/08/28 07:04:04;;;;;;;4.07;2.60;;;;;;;22.02;47.70;100532.91;10416410;28;20057;-87
2023/08/28 07:09:07;;;;;;;3.30;2.30;;;;;;;20.61;50.29;100534.13;10410864;28;20041;-86
2023/08/28 07:14:09;;;;;;;5.80;3.20;;;;;;;21.43;49.20;100530.97;10440516;28;20532;-84
2023/08/28 07:19:11;;;;;;;4.95;2.30;;;;;;;21.62;47.79;100523.53;10428650;28;20045;-86
2023/08/28 07:24:14;;;;;;;4.47;2.63;;;;;;;21.29;48.86;100526.63;10428810;28;20056;-85
2023/08/28 07:29:17;;;;;;;3.42;2.22;;;;;;;21.93;47.09;100519.94;10409637;28;20687;-86
2023/08/28 07:34:19;;;;;;;2.47;1.80;;;;;;;22.56;45.66;100516.25;10445204;28;20045;-85
2023/08/28 07:39:22;;;;;;;4.82;1.58;;;;;;;22.25;46.52;100519.97;10385222;28;20046;-85
2023/08/28 07:44:24;;;;;;;4.57;2.50;;;;;;;23.39;44.04;100514.03;10403153;28;20048;-87
2023/08/28 07:49:27;;;;;;;2.25;1.27;;;;;;;23.76;42.00;100494.72;10399102;28;20057;-84
2023/08/28 07:54:30;;;;;;;2.72;2.00;;;;;;;22.93;43.72;100485.94;10422652;28;20045;-87
2023/08/28 07:59:32;;;;;;;2.00;1.60;;;;;;;22.39;44.92;100474.72;10414471;28;20049;-86
2023/08/28 08:04:36;;;;;;;6.00;2.17;;;;;;;23.36;43.68;100481.16;10399389;28;20045;-84
2023/08/28 08:09:38;;;;;;;2.60;1.80;;;;;;;23.16;43.59;100480.41;10413812;28;20038;-83
2023/08/28 08:14:41;;;;;;;5.13;2.42;;;;;;;22.68;44.13;100464.97;10427333;28;20057;-84
2023/08/28 08:19:44;;;;;;;4.18;1.92;;;;;;;21.26;45.80;100449.19;10411329;28;20137;-84
2023/08/28 08:24:47;;;;;;;4.32;2.30;;;;;;;20.62;47.32;100436.19;10393845;28;20125;-84
2023/08/28 08:29:50;;;;;;;3.17;1.67;;;;;;;20.37;48.60;100429.03;10410058;28;20056;-83
2023/08/28 08:34:52;;;;;;;5.53;2.22;;;;;;;20.32;48.34;100415.38;10443249;28;20029;-83
2023/08/28 08:40:39;;;;;;;4.68;2.40;;;;;;;20.12;48.57;100395.66;10412004;28;20415;-81
2023/08/28 08:45:58;;;;;;;4.05;2.03;;;;;;;20.16;48.44;100393.81;10422333;28;20042;-85
2023/08/28 08:51:06;;;;;;;3.60;2.10;;;;;;;20.21;47.94;100414.22;10405764;28;20481;-80
2023/08/28 09:02:48;;;;;;;4.03;1.92;;;;;;;20.16;48.62;100356.78;10365498;28;20049;-82
2023/08/28 09:07:52;;;;;;;30.92;11.73;;;;;;;19.85;48.66;100376.91;10449289;28;20049;-82
2023/08/28 09:12:55;;;;;;;18.50;5.85;;;;;;;19.58;49.44;100356.16;10426153;28;20064;-82
2023/08/28 09:18:00;;;;;;;4.13;2.30;;;;;;;19.41;50.27;100337.69;10426066;28;20406;-84
2023/08/28 09:23:03;;;;;;;24.90;9.18;;;;;;;19.47;50.62;100347.44;10408308;28;20044;-84
2023/08/28 09:28:12;;;;;;;7.20;4.15;;;;;;;19.76;50.38;100349.19;10406196;28;20052;-84
2023/08/28 09:33:20;;;;;;;22.85;8.80;;;;;;;19.49;50.92;100339.56;10457401;28;20553;-84
2023/08/28 09:38:22;;;;;;;4.90;3.10;;;;;;;19.47;50.83;100353.00;10419511;28;20426;-83
2023/08/28 09:43:24;;;;;;;8.32;3.20;;;;;;;19.48;51.20;100337.13;10409709;28;20075;-85
2023/08/28 09:48:31;;;;;;;9.10;4.80;;;;;;;19.47;51.57;100350.22;10409892;28;20044;-83
2023/08/28 09:53:34;;;;;;;14.00;6.47;;;;;;;19.31;51.99;100340.13;10408334;28;20071;-84
2023/08/28 09:58:36;;;;;;;5.70;2.60;;;;;;;19.58;52.23;100318.00;10416027;28;20414;-82
2023/08/28 10:03:39;;;;;;;5.05;2.78;;;;;;;20.04;51.42;100321.41;10414344;28;20054;-82
2023/08/28 10:08:43;;;;;;;3.88;2.55;;;;;;;19.77;52.47;100316.56;10435864;28;20038;-81
2023/08/28 10:13:45;;;;;;;3.97;3.20;;;;;;;19.84;51.61;100327.94;10419024;28;20053;-83
2023/08/28 10:19:18;;;;;;;5.32;2.97;;;;;;;19.37;52.56;100325.63;10434999;28;20045;-84
2023/08/28 10:24:22;;;;;;;4.35;2.55;;;;;;;19.42;52.77;100305.91;10427036;28;20053;-82
2023/08/28 10:29:24;;;;;;;3.78;2.38;;;;;;;19.76;52.06;100312.97;10443311;28;20057;-81
2023/08/28 10:34:28;;;;;;;3.45;2.30;;;;;;;19.58;51.93;100306.06;10441765;28;20053;-80
2023/08/28 10:39:31;;;;;;;3.38;2.47;;;;;;;19.58;51.79;100314.41;10429319;28;20049;-81
2023/08/28 10:44:33;;;;;;;3.95;2.53;;;;;;;19.61;52.19;100298.97;10413652;28;20045;-80
2023/08/28 10:49:36;;;;;;;5.93;2.38;;;;;;;20.06;51.88;100296.78;10398876;28;20061;-81
2023/08/28 10:54:45;;;;;;;4.07;2.63;;;;;;;19.98;50.76;100283.81;10425571;28;20041;-82
2023/08/28 10:59:49;;;;;;;4.95;2.30;;;;;;;19.90;50.50;100278.38;10418937;28;20506;-81
2023/08/28 11:04:51;;;;;;;2.58;1.65;;;;;;;20.06;49.02;100251.41;10393088;28;20141;-82
2023/08/28 11:10:16;;;;;;;3.03;1.90;;;;;;;19.93;48.64;100236.72;10403006;28;20060;-82
2023/08/28 11:15:26;;;;;;;2.45;1.52;;;;;;;19.79;49.11;100241.88;10403008;28;20045;-83
2023/08/28 11:20:35;;;;;;;1.75;1.25;;;;;;;20.09;48.68;100225.63;10412211;28;20086;-81
2023/08/28 11:25:39;;;;;;;3.10;2.80;;;;;;;19.94;48.69;100221.63;10380105;28;20054;-79
2023/08/28 11:30:43;;;;;;;3.15;2.28;;;;;;;19.85;48.99;100193.13;10386290;28;20144;-80
2023/08/28 11:35:45;;;;;;;6.13;2.85;;;;;;;19.92;48.05;100200.88;10403676;28;20494;-82
2023/08/28 11:40:53;;;;;;;3.03;2.03;;;;;;;19.69;48.51;100203.41;10423017;28;20038;-83
2023/08/28 11:45:55;;;;;;;;;;;;;;;19.80;49.05;100190.59;10424430;28;20045;-81
2023/08/28 11:51:03;;;;;;;1.23;1.13;;;;;;;19.69;48.98;100170.00;10420866;28;19924;-86
2023/08/28 11:56:06;;;;;;;3.60;2.10;;;;;;;19.91;48.94;100149.94;10389285;28;20470;-82
2023/08/28 12:01:08;;;;;;;2.55;2.13;;;;;;;19.52;49.97;100149.59;10367050;28;20045;-83
2023/08/28 12:06:12;;;;;;;4.22;1.70;;;;;;;19.62;50.04;100141.97;10407941;28;20046;-81
2023/08/28 12:11:17;;;;;;;1.95;1.42;;;;;;;19.74;49.85;100155.81;10432699;28;20053;-83
2023/08/28 12:16:19;;;;;;;3.25;2.40;;;;;;;19.62;50.36;100147.53;10398137;28;20511;-81
2023/08/28 12:21:36;;;;;;;4.10;2.20;;;;;;;19.73;50.68;100138.28;10417329;28;20038;-79
2023/08/28 12:26:43;;;;;;;2.60;1.75;;;;;;;19.71;51.18;100134.25;10450419;28;20506;-82
2023/08/28 12:31:47;;;;;;;1.27;1.17;;;;;;;19.61;51.18;100118.84;10407461;28;20042;-83
2023/08/28 12:36:49;;;;;;;2.60;1.88;;;;;;;19.51;51.77;100111.00;10412079;28;20053;-80
2023/08/28 12:41:52;;;;;;;4.88;2.35;;;;;;;19.42;52.58;100096.41;10425273;28;20046;-81
2023/08/28 12:46:55;;;;;;;2.08;1.70;;;;;;;19.39;52.20;100075.69;10430879;28;20570;-80
2023/08/28 12:51:59;;;;;;;2.47;2.28;;;;;;;19.31;51.71;100092.53;10413483;28;20038;-80
2023/08/28 12:57:04;;;;;;;3.03;2.28;;;;;;;19.41;51.37;100076.13;10413029;28;20049;-78
2023/08/28 13:02:09;;;;;;;3.17;1.77;;;;;;;19.39;50.85;100081.25;10430913;28;20046;-80
2023/08/28 13:07:17;;;;;;;1.50;1.38;;;;;;;19.52;51.65;100063.34;10442655;28;20060;-85
2023/08/28 13:12:20;;;;;;;2.35;1.88;;;;;;;19.68;51.48;100057.03;10390628;28;20061;-82
2023/08/28 13:17:23;;;;;;;5.20;2.22;;;;;;;19.78;51.25;100039.78;10412544;28;20037;-79
2023/08/28 13:22:25;;;;;;;2.60;2.03;;;;;;;19.63;51.38;100060.06;10423807;28;20053;-83
2023/08/28 13:27:27;;;;;;;3.15;2.10;;;;;;;19.87;51.12;100037.66;10430253;28;20045;-80
2023/08/28 13:32:30;;;;;;;2.30;1.73;;;;;;;19.85;50.60;100043.59;10457695;28;20037;-80
2023/08/28 13:37:32;;;;;;;2.47;1.77;;;;;;;19.62;51.33;100052.91;10430710;28;20042;-81
2023/08/28 13:42:34;;;;;;;1.92;1.63;;;;;;;19.56;51.04;100030.06;10432050;28;20334;-77
2023/08/28 13:47:38;;;;;;;4.45;2.22;;;;;;;19.47;51.32;100043.31;10442227;28;20405;-79
2023/08/28 13:52:44;;;;;;;2.60;1.75;;;;;;;19.53;51.43;100016.84;10419655;28;20327;-79
2023/08/28 13:57:47;;;;;;;4.13;2.65;;;;;;;19.51;51.83;100016.38;10425979;28;20048;-84
2023/08/28 14:02:50;;;;;;;4.53;2.67;;;;;;;19.54;51.58;99996.22;10428110;28;20052;-82
2023/08/28 14:07:53;;;;;;;2.17;1.67;;;;;;;19.60;51.50;99991.19;10455283;28;20042;-80
2023/08/28 14:12:55;;;;;;;2.88;1.95;;;;;;;19.50;51.61;100001.66;10423039;28;20056;-80
2023/08/28 14:18:34;;;;;;;4.22;2.30;;;;;;;19.35;52.25;99999.66;10421009;28;20045;-80
2023/08/28 14:23:38;;;;;;;2.90;2.13;;;;;;;19.44;51.75;99978.06;10418412;28;20144;-78
2023/08/28 14:29:07;;;;;;;5.45;2.58;;;;;;;19.45;51.85;99998.34;10413929;28;20061;-81
2023/08/28 14:34:11;;;;;;;2.88;2.55;;;;;;;19.55;51.11;100003.41;10424126;28;20414;-80
2023/08/28 14:39:13;;;;;;;6.70;1.88;;;;;;;19.48;51.76;99973.38;10429389;28;20042;-81
2023/08/28 14:44:16;;;;;;;2.42;2.17;;;;;;;19.49;51.54;99980.56;10446994;28;20072;-81
2023/08/28 14:49:19;;;;;;;2.95;1.85;;;;;;;19.44;50.74;99975.28;10415191;28;20043;-80
2023/08/28 14:54:21;;;;;;;4.57;2.17;;;;;;;19.42;51.08;99946.97;10410990;28;20049;-84
2023/08/28 14:59:49;;;;;;;1.15;0.95;;;;;;;19.37;50.86;99997.31;10409728;28;20471;-84
2023/08/28 15:05:25;;;;;;;1.67;1.42;;;;;;;19.31;51.03;99993.19;10413555;28;20054;-85
2023/08/28 15:11:03;;;;;;;2.53;1.58;;;;;;;19.30;51.44;99933.16;10402171;28;20046;-82
2023/08/28 15:16:13;;;;;;;3.22;1.55;;;;;;;19.27;50.87;99934.69;10385935;28;20621;-82
2023/08/28 15:21:42;;;;;;;2.50;2.03;;;;;;;19.28;50.80;99905.69;10390568;28;20425;-79
2023/08/28 15:27:08;;;;;;;2.22;1.60;;;;;;;19.21;51.05;99965.88;10420491;28;20054;-79
2023/08/28 15:32:10;;;;;;;1.20;1.10;;;;;;;19.18;51.84;99909.00;10437104;28;20045;-82
2023/08/28 15:37:14;;;;;;;5.25;1.77;;;;;;;19.18;52.31;99885.94;10423984;28;20049;-82
2023/08/28 15:42:16;;;;;;;1.67;1.58;;;;;;;19.07;53.00;99882.03;10423324;28;20045;-83
2023/08/28 15:47:19;;;;;;;2.97;1.50;;;;;;;18.92;54.22;99834.44;10425069;28;20057;-82
2023/08/28 15:52:21;;;;;;;6.18;1.85;;;;;;;18.94;54.43;99851.56;10429534;28;20223;-80
2023/08/28 15:57:24;;;;;;;2.78;2.20;;;;;;;18.95;54.39;99828.16;10419568;28;20045;-82
2023/08/28 16:02:27;;;;;;;6.18;2.33;;;;;;;18.93;54.32;99821.34;10408332;28;20045;-81
2023/08/28 16:07:29;;;;;;;2.67;1.90;;;;;;;18.90;55.08;99850.63;10409833;28;20030;-83
2023/08/28 16:12:32;;;;;;;5.60;2.60;;;;;;;18.85;55.04;99809.19;10411278;28;20522;-82
2023/08/28 16:17:34;;;;;;;2.53;1.90;;;;;;;18.85;55.33;99838.97;10440176;28;20044;-82
2023/08/28 16:22:37;;;;;;;2.78;2.28;;;;;;;18.84;55.33;99818.69;10441633;28;20057;-82
2023/08/28 16:27:43;;;;;;;3.00;1.98;;;;;;;18.77;56.34;99812.16;10446496;28;20494;-79
2023/08/28 16:32:46;;;;;;;2.27;1.67;;;;;;;18.72;56.34;99809.63;10412627;28;20037;-84
2023/08/28 16:37:49;;;;;;;2.13;1.88;;;;;;;18.75;56.62;99812.53;10376147;28;20046;-83
2023/08/28 16:42:51;;;;;;;3.25;1.98;;;;;;;18.72;56.37;99823.53;10407435;28;20050;-84
2023/08/28 16:47:54;;;;;;;1.90;1.60;;;;;;;18.69;56.63;99833.38;10417189;28;20049;-82
2023/08/28 16:52:56;;;;;;;3.58;2.05;;;;;;;18.16;60.56;99840.16;10433022;28;20533;-82
2023/08/28 16:57:59;;;;;;;2.30;1.80;;;;;;;17.75;63.49;99845.69;10417878;28;20517;-82
2023/08/28 17:03:01;;;;;;;3.78;1.48;;;;;;;17.00;69.09;99858.97;10433573;28;20045;-81
2023/08/28 17:08:07;;;;;;;3.30;2.35;;;;;;;16.32;73.86;99880.66;10422236;28;20061;-80
2023/08/28 17:13:09;;;;;;;4.18;2.30;;;;;;;16.42;74.45;99929.25;10424380;28;20041;-82
2023/08/28 17:18:37;;;;;;;4.50;2.15;;;;;;;15.73;79.99;99913.91;10400793;28;20037;-83
2023/08/28 17:23:40;;;;;;;2.78;2.30;;;;;;;15.55;82.62;99942.75;10403695;28;20050;-83
2023/08/28 17:28:43;;;;;;;4.25;2.38;;;;;;;15.44;84.26;99956.13;10416697;28;20128;-84
2023/08/28 17:33:49;;;;;;;3.42;2.42;;;;;;;15.53;85.16;99983.75;10442494;28;20041;-81
2023/08/28 17:39:13;;;;;;;3.13;2.25;;;;;;;15.51;86.16;99986.84;10407054;28;20049;-80
2023/08/28 17:44:16;;;;;;;2.13;1.48;;;;;;;15.46;87.17;99994.53;10402455;28;20057;-83
2023/08/28 17:49:18;;;;;;;4.65;2.67;;;;;;;15.56;87.47;100008.78;10429961;28;20042;-80
2023/08/28 17:54:21;;;;;;;4.25;2.70;;;;;;;15.60;88.06;100001.47;10408526;28;20045;-83
2023/08/28 17:59:23;;;;;;;3.70;2.63;;;;;;;15.68;86.99;100014.47;10421275;28;20049;-82
2023/08/28 18:04:25;;;;;;;3.60;1.90;;;;;;;15.76;86.84;100003.72;10417613;28;20050;-81
2023/08/28 18:09:28;;;;;;;2.58;2.20;;;;;;;15.97;87.16;100010.97;10364235;28;20038;-80
2023/08/28 18:14:30;;;;;;;2.72;2.10;;;;;;;16.18;86.90;99999.13;10373681;28;20228;-80
2023/08/28 18:19:33;;;;;;;3.70;2.45;;;;;;;16.05;87.64;99989.09;10399213;28;20034;-81
2023/08/28 18:24:35;;;;;;;2.78;2.28;;;;;;;15.95;88.53;99984.75;10385853;28;20049;-79
2023/08/28 18:29:39;;;;;;;4.15;2.45;;;;;;;16.09;89.47;99998.34;10383124;28;20051;-82
2023/08/28 18:34:41;;;;;;;5.30;2.63;;;;;;;15.93;89.19;99993.38;10360441;28;20042;-79
2023/08/28 18:39:43;;;;;;;4.35;2.58;;;;;;;15.75;91.71;99980.75;10365443;28;20046;-81
2023/08/28 18:44:46;;;;;;;4.70;2.58;;;;;;;15.88;92.07;99973.41;10379686;28;20468;-83
2023/08/28 18:49:48;;;;;;;2.65;2.25;;;;;;;15.66;91.27;99957.88;10383609;28;20061;-83
2023/08/28 18:54:51;;;;;;;6.40;2.88;;;;;;;15.47;93.58;99951.91;10398060;28;20053;-81
2023/08/28 18:59:54;;;;;;;2.88;2.00;;;;;;;15.39;93.55;99951.59;10382900;28;20046;-82
2023/08/28 19:04:56;;;;;;;4.75;2.47;;;;;;;15.38;94.29;99961.03;10371501;28;20061;-81
2023/08/28 19:09:59;;;;;;;3.55;2.25;;;;;;;15.22;94.86;99962.69;10411409;28;20053;-80
2023/08/28 19:15:06;;;;;;;3.40;2.47;;;;;;;15.29;95.73;99956.66;10425826;28;20132;-82
2023/08/28 19:20:09;;;;;;;2.42;2.08;;;;;;;15.33;96.67;99974.22;10381787;28;20044;-82
2023/08/28 19:25:17;;;;;;;4.07;2.63;;;;;;;15.57;96.65;99974.47;10384524;28;20037;-81
2023/08/28 19:30:19;;;;;;;2.97;2.10;;;;;;;15.65;96.33;99992.22;10408186;28;20046;-78
2023/08/28 19:35:22;;;;;;;3.63;2.47;;;;;;;16.01;96.54;99975.13;10384964;28;20046;-78
2023/08/28 19:46:04;;;;;;;4.72;2.40;;;;;;;15.93;95.40;99976.78;10418681;28;20042;-78
2023/08/28 19:51:07;;;;;;;3.60;2.30;;;;;;;16.16;94.86;99979.28;10381188;28;20038;-79
2023/08/28 19:56:09;;;;;;;4.03;2.55;;;;;;;16.34;92.62;99975.25;10400951;28;20495;-80
2023/08/28 20:01:11;;;;;;;6.63;2.90;;;;;;;16.37;92.35;99984.84;10397100;28;20045;-80
2023/08/28 20:06:13;;;;;;;2.83;2.25;;;;;;;16.14;93.48;99976.00;10441513;28;20053;-80
2023/08/28 20:11:16;;;;;;;4.88;2.88;;;;;;;16.38;93.54;99995.59;10435275;28;20041;-87
2023/08/28 20:16:24;;;;;;;4.40;2.70;;;;;;;16.64;91.96;99991.81;10409518;28;20033;-82
2023/08/28 20:21:26;;;;;;;3.97;2.80;;;;;;;16.76;90.50;100000.22;10428905;28;20461;-83
2023/08/28 20:26:29;;;;;;;4.72;2.53;;;;;;;16.59;91.82;100003.91;10426107;28;20447;-82
2023/08/28 20:31:31;;;;;;;3.78;2.83;;;;;;;16.75;91.31;100006.94;10410252;28;20080;-83
2023/08/28 20:36:34;;;;;;;3.50;2.55;;;;;;;16.64;91.10;100005.66;10414183;28;20418;-84
2023/08/28 20:41:37;;;;;;;3.90;2.50;;;;;;;16.20;93.53;100025.34;10436609;28;20437;-83
2023/08/28 20:46:39;;;;;;;3.53;2.03;;;;;;;16.21;94.03;100024.19;10414081;28;20052;-82
2023/08/28 20:51:41;;;;;;;3.00;1.85;;;;;;;16.15;94.33;100030.25;10447615;28;20053;-82
2023/08/28 20:56:44;;;;;;;2.60;1.67;;;;;;;16.17;94.43;100031.53;10405789;28;20053;-81
2023/08/28 21:01:47;;;;;;;1.70;1.17;;;;;;;16.25;94.27;100032.63;10424731;28;20049;-83
2023/08/28 21:06:49;;;;;;;1.55;1.10;;;;;;;16.14;94.23;100029.44;10425701;28;20053;-81
2023/08/28 21:11:52;;;;;;;3.22;1.20;;;;;;;16.04;93.82;100046.41;10439342;28;20080;-82
2023/08/28 21:16:55;;;;;;;1.65;1.00;;;;;;;16.06;93.56;100043.31;10436889;28;20048;-80
2023/08/28 21:21:58;;;;;;;0.98;0.90;;;;;;;16.09;93.22;100040.69;10419348;28;20042;-82
2023/08/28 21:27:00;;;;;;;1.98;1.10;;;;;;;15.91;91.08;100051.00;10444589;28;20045;-82
2023/08/28 21:32:04;;;;;;;1.48;1.08;;;;;;;15.84;90.27;100047.94;10444006;28;20042;-81
2023/08/28 21:37:06;;;;;;;1.17;0.90;;;;;;;15.79;92.15;100053.66;10417284;28;20033;-81
2023/08/28 21:42:13;;;;;;;1.88;1.13;;;;;;;15.83;89.87;100062.94;10469308;28;20048;-82
2023/08/28 21:47:15;;;;;;;1.40;0.70;;;;;;;15.80;90.23;100066.38;10448994;28;20041;-85
2023/08/28 21:52:36;;;;;;;1.35;0.82;;;;;;;15.87;89.90;100072.19;10440556;28;20029;-82
2023/08/28 21:57:57;;;;;;;1.95;0.90;;;;;;;15.74;89.94;100073.19;10415516;28;20716;-81
2023/08/28 22:03:18;;;;;;;1.08;0.68;;;;;;;15.66;89.67;100082.34;10404564;28;20065;-82
2023/08/28 22:08:39;;;;;;;1.80;0.85;;;;;;;15.58;88.52;100080.34;10441747;28;20141;-81
2023/08/28 22:14:00;;;;;;;1.15;0.60;;;;;;;15.67;88.12;100084.78;10432837;28;20053;-81
2023/08/28 22:19:03;;;;;;;0.65;0.55;;;;;;;15.73;86.35;100087.34;10440599;28;20042;-82
2023/08/28 22:24:08;;;;;;;1.17;0.70;;;;;;;15.84;86.59;100097.75;10416712;28;20057;-80
2023/08/28 22:29:10;;;;;;;0.73;0.63;;;;;;;15.65;86.01;100091.78;10439812;28;20040;-80
2023/08/28 22:34:12;;;;;;;1.65;0.57;;;;;;;15.88;85.63;100101.47;10421985;28;20056;-80
2023/08/28 22:39:15;;;;;;;0.68;0.60;;;;;;;15.76;84.52;100115.16;10443135;28;20060;-81
2023/08/28 22:44:17;;;;;;;0.63;0.63;;;;;;;15.65;84.89;100120.25;10434126;28;20041;-81
2023/08/28 22:49:19;;;;;;;1.02;0.50;;;;;;;15.43;84.62;100122.34;10443110;28;20057;-80
2023/08/28 22:54:22;;;;;;;1.13;0.60;;;;;;;15.67;84.25;100129.03;10426183;28;20053;-82
2023/08/28 22:59:25;;;;;;;1.35;0.70;;;;;;;15.61;83.56;100140.56;10442038;28;20042;-80
2023/08/28 23:04:27;;;;;;;0.50;0.50;;;;;;;15.57;83.84;100140.38;10410531;28;20279;-82
2023/08/28 23:09:30;;;;;;;0.70;0.50;;;;;;;15.96;81.94;100141.31;10463580;28;20056;-80
2023/08/28 23:14:33;;;;;;;0.68;0.60;;;;;;;15.69;81.16;100150.81;10419917;28;20048;-80
2023/08/28 23:19:35;;;;;;;1.20;0.55;;;;;;;15.30;82.40;100162.84;10423588;28;20069;-82
2023/08/28 23:24:37;;;;;;;0.50;0.50;;;;;;;15.21;82.51;100164.78;10396742;28;20057;-82
2023/08/28 23:29:40;;;;;;;2.40;0.50;;;;;;;15.03;82.61;100163.94;10390092;28;20037;-83
2023/08/28 23:34:44;;;;;;;1.55;0.60;;;;;;;15.20;82.55;100169.50;10417734;28;20037;-83
2023/08/28 23:39:46;;;;;;;1.83;0.70;;;;;;;15.09;83.31;100176.47;10441625;28;20074;-82